Accueil
METAR-TAF:

METAR-TAF

Aéroports :

Marham, Angleterre

latitude: 52-39N, longitude: 000-34E, altitude: 23 m

Observation

Le bulletin a été fait il y a 54 minutes, à 17:50 UTC
Vent 4 kt de ouest/sud-ouest
Température 10°C
Humidité 71%
Pression 1031 hPa
Visibilité 10 km ou plus

METAR: EGYM 261750Z AUTO 25004KT 9999 BKN045/// 10/05 Q1031

Heure: 18:44 (18:44 UTC)

Prévision

Le bulletin a été fait il y a 1 heure et 30 minutes, à 17:14 UTC
Prévision valable du 26 à 18 UTC au 27 à 03 UTC
Vent 6 kt de nord-ouest
Visibilité 10 km ou plus
Nuages fragmentés à une hauteur de 4500 ft

TAF: EGYM 261714Z 2618/2703 31006KT 9999 BKN045

Observations et prévisions météorologiques de plus de 4000 aéroports (messages METAR et TAF).

Les stations disponibles sont représentées par des disques jaunes et rouges sur la carte.

Passer la souris dessus pour voir le nom de la station.

Cliquer dessus pour voir les observations et prévisions météorologiques.

Pour changer de carte: cliquez sur les boutons verts avec une croix noire pour zoomer, sur le bouton vert avec un tiret pour effectuer un zoom arrière, ou sur les flèches vertes pour les cartes adjacentes.


METAR-TAF: